LEBL Airport Information

Runway Information
Runway 02 Length 8333 ft width 148 ft
Elevation 7 ft Threshold 131 ft Heading 19
Runway 20 Length 8333 ft Width 148 ft
Elevation 12 ft Threshold 0 ft Heading 199
Runway 07L Length 11654 ft width 148 ft
Elevation 8 ft Threshold 295 ft Heading 66
Runway 25R Length 11654 ft Width 148 ft
Elevation 10 ft Threshold 0 ft Heading 246
Runway 07R Length 8727 ft width 197 ft
Elevation 8 ft Threshold 0 ft Heading 66
Runway 25L Length 8727 ft Width 197 ft
Elevation 8 ft Threshold 0 ft Heading 246
Airport Frequencies
Type APP Name APP Frequency 119.1 MHZ
Type ATIS Name ATIS Frequency 118.65 MHZ
Type CLD Name CLNC DEL Frequency 121.8 MHZ
Type GND Name GND Frequency 121.65 MHZ
Type TWR Name TWR Frequency 118.1 MHZ
Airport Navaids
Type VOR-DME Name Barcelona Frequency 116700 KHZ
Type VOR-DME Name El Prat Frequency 114300 KHZ
Type VOR-DME Name Sabadell Frequency 112000 KHZ
Type NDB Name Villanueva Frequency 380 KHZ
Airport Weather Information & NOTAM
ADDS - METARS form results

(0210 UTC 23 August 2019)
Data provider http://aviationweather.gov/metar/data/
 
METAR text: LEBL 230200Z 33007KT 9999 FEW035 22/19 Q1020 NOSIG
Conditions at: LEBL (BARCELONA AIRPOR, ES) observed 0200 UTC 23 August 2019
Temperature: 22.0°C (72°F)
Dewpoint: 19.0°C (66°F) [RH = 83%]
Pressure (altimeter): 30.12 inches Hg (1020.0 mb)
Winds: from the NNW (330 degrees) at 8 MPH (7 knots; 3.6 m/s)
Visibility: 6 or more miles (10+ km)
Ceiling: at least 12,000 feet AGL
Clouds: few clouds at 3500 feet AGL
Weather: no significant weather observed at this time

METAR text: LEBL 230130Z 32007KT 9999 FEW035 23/19 Q1020 NOSIG
Conditions at: LEBL (BARCELONA AIRPOR, ES) observed 0130 UTC 23 August 2019
Temperature: 23.0°C (73°F)
Dewpoint: 19.0°C (66°F) [RH = 78%]
Pressure (altimeter): 30.12 inches Hg (1020.0 mb)
Winds: from the NW (320 degrees) at 8 MPH (7 knots; 3.6 m/s)
Visibility: 6 or more miles (10+ km)
Ceiling: at least 12,000 feet AGL
Clouds: few clouds at 3500 feet AGL
Weather: no significant weather observed at this time

Forecast for: LEBL (BARCELONA AIRPOR, ES)
Text: TAF LEBL 222300Z 2300/2324 34007KT 9999 FEW035 TX29/2312Z TN21/2306Z
Forecast period: 0000 to 0700 UTC 23 August 2019
Forecast type: FROM: standard forecast or significant change
Winds: from the NNW (340 degrees) at 8 MPH (7 knots; 3.6 m/s)
Visibility: 6 or more miles 10+ km)
Ceiling: at least 12,000 feet AGL
Clouds: few clouds at 3500 feet AGL
Weather: no significant weather forecast for this period
Text: BECMG 2307/2310 16006KT
Forecast period: 0700 UTC 23 August 2019 to 0000 UTC 24 August 2019
Forecast type: BECOMING: Conditions expected to become as follows by 1000 UTC 23 August 2019
Winds: from the SSE (160 degrees) at 7 MPH (6 knots; 3.1 m/s)
Visibility: 6 or more miles 10+ km)
Ceiling: at least 12,000 feet AGL
Clouds: few clouds at 3500 feet AGL
Weather: no significant weather forecast for this period